createdAt,value
2019-03-29T00:00:06.399Z,74.97
2019-03-29T00:02:39.893Z,74.99
2019-03-29T00:05:11.967Z,75.63
2019-03-29T00:07:44.090Z,76.01
2019-03-29T00:10:16.145Z,76.31
2019-03-29T00:12:48.437Z,76.52
2019-03-29T00:15:20.830Z,75.86
2019-03-29T00:17:52.930Z,75.73
2019-03-29T00:20:25.145Z,75.64
2019-03-29T00:22:57.325Z,75.45
2019-03-29T00:25:29.389Z,75.13
2019-03-29T00:28:01.267Z,74.86
2019-03-29T00:30:33.581Z,75.02
2019-03-29T00:33:05.829Z,75.07
2019-03-29T00:35:37.645Z,76.91
2019-03-29T00:38:09.870Z,76.07
2019-03-29T00:40:41.901Z,75.53
2019-03-29T00:43:13.906Z,75.53
2019-03-29T00:45:46.285Z,75.43
2019-03-29T00:48:19.621Z,75.57
2019-03-29T00:50:51.984Z,75.28
2019-03-29T00:53:24.943Z,75.31
2019-03-29T00:55:57.343Z,75.56
2019-03-29T00:58:29.602Z,75.79
2019-03-29T01:01:01.521Z,75.81
2019-03-29T01:03:33.520Z,75.36
2019-03-29T01:06:05.725Z,75.66
2019-03-29T01:08:38.123Z,75.64
2019-03-29T01:11:11.046Z,76.03
2019-03-29T01:13:43.197Z,75.79
2019-03-29T01:16:15.700Z,75.57
2019-03-29T01:18:47.912Z,76.27
2019-03-29T01:21:20.004Z,75.94
2019-03-29T01:23:51.993Z,75.82
2019-03-29T01:26:23.945Z,76.19
2019-03-29T01:28:56.180Z,76.71
2019-03-29T01:31:28.276Z,76.86
2019-03-29T01:34:00.395Z,77.11
2019-03-29T01:36:32.382Z,77.07
2019-03-29T01:39:05.993Z,77.43
2019-03-29T01:41:37.897Z,77.45
2019-03-29T01:44:09.739Z,76.97
2019-03-29T01:46:41.579Z,76.44
2019-03-29T01:49:13.954Z,76.12
2019-03-29T01:51:46.009Z,76.01
2019-03-29T01:54:18.440Z,76.82
2019-03-29T01:56:50.311Z,76.78
2019-03-29T01:59:22.243Z,76.92
2019-03-29T02:01:54.959Z,77.01
2019-03-29T02:04:27.443Z,76.78
2019-03-29T02:06:59.726Z,77.06
2019-03-29T02:09:31.864Z,77.04
2019-03-29T02:12:03.987Z,76.71
2019-03-29T02:14:35.961Z,77.05
2019-03-29T02:17:07.995Z,77.23
2019-03-29T02:19:40.146Z,77.30
2019-03-29T02:22:12.243Z,77.12
2019-03-29T02:24:44.574Z,77.19
2019-03-29T02:27:16.786Z,77.17
2019-03-29T02:29:48.933Z,77.17
2019-03-29T02:32:21.066Z,77.35
2019-03-29T02:34:53.186Z,77.59
2019-03-29T02:37:25.339Z,77.58
2019-03-29T02:39:57.606Z,77.83
2019-03-29T02:42:29.614Z,77.45
2019-03-29T02:45:03.403Z,77.50
2019-03-29T02:47:35.474Z,77.32
2019-03-29T02:50:09.150Z,77.51
2019-03-29T02:52:41.181Z,77.22
2019-03-29T02:55:13.413Z,77.15
2019-03-29T02:57:45.714Z,77.03
2019-03-29T03:00:18.223Z,76.77
2019-03-29T03:02:50.439Z,76.82
2019-03-29T03:05:22.638Z,76.52
2019-03-29T03:07:54.624Z,76.42
2019-03-29T03:10:26.726Z,76.20
2019-03-29T03:12:59.503Z,76.23
2019-03-29T03:15:33.436Z,76.33
2019-03-29T03:18:05.479Z,76.46
2019-03-29T03:20:37.318Z,76.75
2019-03-29T03:23:09.490Z,76.48
2019-03-29T03:25:41.993Z,76.28
2019-03-29T03:28:14.009Z,76.38
2019-03-29T03:30:46.311Z,76.10
2019-03-29T03:33:18.602Z,76.45
2019-03-29T03:35:51.110Z,76.33
2019-03-29T03:38:22.944Z,76.35
2019-03-29T03:40:55.319Z,76.33
2019-03-29T03:43:27.287Z,76.33
2019-03-29T03:45:59.316Z,76.31
2019-03-29T03:48:31.543Z,76.29
2019-03-29T03:51:04.469Z,76.26
2019-03-29T03:53:36.625Z,76.42
2019-03-29T03:56:10.896Z,76.24
2019-03-29T03:58:44.731Z,76.33
2019-03-29T04:01:16.767Z,76.42
2019-03-29T04:03:48.950Z,76.48
2019-03-29T04:06:21.207Z,76.40
2019-03-29T04:08:53.184Z,76.43
2019-03-29T04:11:25.341Z,76.50
2019-03-29T04:13:57.538Z,76.69
2019-03-29T04:16:29.719Z,76.71
2019-03-29T04:19:01.697Z,76.53
2019-03-29T04:21:33.677Z,76.56
2019-03-29T04:24:06.199Z,76.59
2019-03-29T04:26:38.194Z,76.55
2019-03-29T04:29:10.362Z,76.57
2019-03-29T04:31:42.496Z,76.39
2019-03-29T04:34:14.554Z,76.53
2019-03-29T04:36:46.604Z,76.44
2019-03-29T04:39:19.279Z,76.44
2019-03-29T04:41:51.338Z,76.53
2019-03-29T04:44:23.577Z,76.82
2019-03-29T04:46:55.564Z,76.73
2019-03-29T04:49:27.820Z,76.63
2019-03-29T04:51:59.917Z,76.86
2019-03-29T04:54:32.002Z,76.58
2019-03-29T04:57:04.015Z,76.70
2019-03-29T04:59:36.409Z,76.72
2019-03-29T05:02:08.616Z,76.70
2019-03-29T05:04:40.949Z,76.66
2019-03-29T05:07:13.602Z,76.93
2019-03-29T05:09:46.053Z,76.75
2019-03-29T05:12:18.099Z,76.69
2019-03-29T05:14:50.066Z,76.75
2019-03-29T05:17:21.897Z,76.62
2019-03-29T05:19:54.363Z,76.80
2019-03-29T05:22:26.270Z,76.68
2019-03-29T05:24:58.235Z,76.78
2019-03-29T05:27:30.285Z,76.92
2019-03-29T05:30:02.157Z,76.91
2019-03-29T05:32:35.138Z,77.00
2019-03-29T05:35:07.157Z,76.97
2019-03-29T05:37:39.301Z,76.85
2019-03-29T05:40:11.848Z,76.98
2019-03-29T05:42:44.001Z,76.88
2019-03-29T05:45:16.087Z,76.92
2019-03-29T05:47:48.028Z,76.90
2019-03-29T05:50:19.941Z,76.87
2019-03-29T05:52:52.012Z,76.78
2019-03-29T05:55:32.656Z,76.78
2019-03-29T05:57:57.724Z,76.85
2019-03-29T06:00:29.780Z,77.04
2019-03-29T06:03:01.601Z,77.03
2019-03-29T06:05:34.154Z,77.08
2019-03-29T06:08:07.093Z,76.99
2019-03-29T06:10:48.943Z,77.13
2019-03-29T06:13:13.110Z,76.83
2019-03-29T06:15:45.286Z,76.94
2019-03-29T06:18:18.713Z,76.81
2019-03-29T06:20:52.451Z,77.05
2019-03-29T06:23:24.352Z,76.92
2019-03-29T06:25:56.845Z,76.89
2019-03-29T06:28:30.120Z,76.89
2019-03-29T06:31:02.079Z,76.88
2019-03-29T06:33:34.536Z,76.79
2019-03-29T06:36:09.290Z,76.85
2019-03-29T06:38:43.734Z,76.51
2019-03-29T06:41:15.689Z,76.65
2019-03-29T06:43:47.819Z,76.53
2019-03-29T06:46:21.042Z,76.37
2019-03-29T06:48:53.245Z,76.31
2019-03-29T06:51:25.538Z,76.05
2019-03-29T06:53:59.996Z,75.71
2019-03-29T06:56:31.983Z,75.76
2019-03-29T06:59:03.985Z,76.04
2019-03-29T07:01:36.274Z,75.84
2019-03-29T07:04:08.622Z,75.89
2019-03-29T07:06:40.526Z,75.65
2019-03-29T07:09:12.483Z,75.74
2019-03-29T07:11:44.498Z,75.46
2019-03-29T07:14:17.034Z,75.15
2019-03-29T07:16:48.865Z,75.06
2019-03-29T07:19:21.180Z,75.03
2019-03-29T07:21:53.036Z,74.46
2019-03-29T07:24:25.160Z,74.77
2019-03-29T07:26:55.735Z,74.67
2019-03-29T07:29:27.655Z,74.60
2019-03-29T07:31:59.597Z,74.07
2019-03-29T07:34:31.623Z,74.41
2019-03-29T07:37:05.886Z,74.57
2019-03-29T07:39:37.411Z,74.39
2019-03-29T07:42:10.957Z,74.40
2019-03-29T07:44:43.069Z,73.97
2019-03-29T07:47:14.928Z,73.56
2019-03-29T07:49:47.002Z,73.78
2019-03-29T07:52:20.175Z,73.10
2019-03-29T07:54:52.563Z,72.80
2019-03-29T07:57:24.756Z,73.25
2019-03-29T07:59:56.843Z,73.36
2019-03-29T08:02:29.262Z,72.68
2019-03-29T08:05:01.413Z,73.05
2019-03-29T08:07:33.798Z,72.80
2019-03-29T08:10:06.545Z,72.38
2019-03-29T08:12:40.527Z,72.25
2019-03-29T08:15:12.726Z,72.57
2019-03-29T08:17:44.605Z,72.61
2019-03-29T08:20:38.926Z,72.34
2019-03-29T08:22:50.718Z,72.32
2019-03-29T08:25:22.740Z,72.09
2019-03-29T08:27:54.966Z,72.54
2019-03-29T08:30:27.095Z,72.87
2019-03-29T08:32:59.093Z,72.69
2019-03-29T08:35:31.438Z,72.81
2019-03-29T08:38:06.138Z,72.93
2019-03-29T08:40:37.186Z,72.49
2019-03-29T08:43:09.261Z,72.99
2019-03-29T08:45:41.420Z,72.98
2019-03-29T08:48:13.526Z,72.86
2019-03-29T08:50:45.689Z,72.72
2019-03-29T08:53:17.798Z,72.62
2019-03-29T08:55:49.936Z,72.65
2019-03-29T08:58:21.925Z,72.49
2019-03-29T09:00:54.656Z,72.66
2019-03-29T09:03:26.794Z,72.59
2019-03-29T09:05:58.723Z,72.69
2019-03-29T09:08:31.001Z,72.35
2019-03-29T09:11:02.815Z,72.20
2019-03-29T09:13:35.008Z,71.79
2019-03-29T09:16:06.964Z,71.75
2019-03-29T09:18:39.029Z,71.64
2019-03-29T09:21:11.070Z,72.46
2019-03-29T09:23:43.899Z,72.28
2019-03-29T09:26:16.239Z,72.13
2019-03-29T09:28:48.880Z,72.31
2019-03-29T09:31:20.895Z,71.76
2019-03-29T09:33:53.222Z,72.18
2019-03-29T09:36:25.147Z,72.04
2019-03-29T09:38:57.188Z,72.65
2019-03-29T09:41:29.691Z,71.50
2019-03-29T09:44:01.850Z,71.15
2019-03-29T09:46:33.951Z,70.58
2019-03-29T09:49:08.376Z,70.47
2019-03-29T09:51:40.922Z,70.26
2019-03-29T09:54:13.094Z,70.30
2019-03-29T09:56:48.199Z,70.31
2019-03-29T09:59:19.018Z,69.94
2019-03-29T10:01:53.859Z,69.75
2019-03-29T10:04:24.536Z,69.25
2019-03-29T10:06:56.675Z,68.84
2019-03-29T10:09:29.121Z,67.75
2019-03-29T10:12:01.264Z,66.99
2019-03-29T10:14:33.771Z,66.76
2019-03-29T10:17:05.933Z,66.64
2019-03-29T10:19:39.648Z,66.57
2019-03-29T10:22:11.697Z,67.62
2019-03-29T10:24:43.754Z,67.81
2019-03-29T10:27:18.858Z,66.41
2019-03-29T10:29:49.746Z,66.61
2019-03-29T10:32:22.758Z,65.83
2019-03-29T10:34:54.654Z,65.38
2019-03-29T10:37:26.891Z,65.66
2019-03-29T10:40:00.351Z,65.85
2019-03-29T10:42:32.970Z,65.08
2019-03-29T10:45:05.411Z,65.10
2019-03-29T10:47:43.515Z,65.22
2019-03-29T10:50:11.648Z,65.17
2019-03-29T10:52:43.721Z,64.80
2019-03-29T10:55:16.894Z,65.35
2019-03-29T10:57:48.965Z,65.53
2019-03-29T11:00:34.435Z,66.15
2019-03-29T11:03:07.265Z,65.83
2019-03-29T11:05:40.423Z,65.62
2019-03-29T11:08:12.600Z,66.14
2019-03-29T11:10:44.734Z,66.50
2019-03-29T11:13:16.685Z,65.90
2019-03-29T11:15:48.896Z,66.27
2019-03-29T11:18:21.597Z,66.23
2019-03-29T11:20:53.826Z,66.56
2019-03-29T11:23:25.741Z,66.24
2019-03-29T11:25:57.629Z,66.17
2019-03-29T11:28:30.083Z,66.32
2019-03-29T11:31:01.929Z,66.60
2019-03-29T11:33:33.992Z,66.03
2019-03-29T11:36:05.988Z,65.97
2019-03-29T11:38:38.189Z,65.61
2019-03-29T11:41:10.356Z,66.05
2019-03-29T11:43:42.235Z,65.97
2019-03-29T11:46:14.095Z,66.60
2019-03-29T11:48:45.988Z,66.71
2019-03-29T11:51:19.496Z,66.46
2019-03-29T11:53:51.858Z,66.37
2019-03-29T11:56:23.982Z,67.12
2019-03-29T11:58:56.229Z,66.57
2019-03-29T12:01:28.162Z,67.01
2019-03-29T12:04:00.107Z,66.79
2019-03-29T12:06:31.929Z,66.75
2019-03-29T12:09:05.794Z,66.38
2019-03-29T12:11:37.907Z,66.45
2019-03-29T12:14:10.124Z,66.30
2019-03-29T12:16:42.344Z,65.81
2019-03-29T12:19:14.537Z,66.14
2019-03-29T12:21:46.699Z,65.84
2019-03-29T12:24:19.022Z,66.12
2019-03-29T12:26:51.110Z,65.92
2019-03-29T12:29:23.348Z,65.63
2019-03-29T12:31:55.304Z,66.00
2019-03-29T12:34:27.178Z,65.74
2019-03-29T12:36:59.329Z,65.79
2019-03-29T12:39:31.656Z,65.02
2019-03-29T12:42:03.675Z,65.50
2019-03-29T12:44:36.624Z,65.08
2019-03-29T12:47:08.755Z,64.85
2019-03-29T12:49:40.989Z,64.82
2019-03-29T12:52:13.276Z,64.94
2019-03-29T12:54:45.775Z,65.10
2019-03-29T12:57:18.006Z,64.57
2019-03-29T12:59:50.240Z,65.15
2019-03-29T13:02:22.593Z,65.09
2019-03-29T13:04:54.677Z,65.08
2019-03-29T13:07:26.719Z,64.90
2019-03-29T13:09:59.860Z,64.60
2019-03-29T13:12:31.989Z,64.76
2019-03-29T13:15:04.185Z,65.08
2019-03-29T13:17:36.722Z,63.97
2019-03-29T13:20:09.411Z,64.62
2019-03-29T13:22:41.640Z,64.08
2019-03-29T13:25:13.718Z,64.59
2019-03-29T13:27:45.910Z,64.55
2019-03-29T13:30:17.966Z,64.85
2019-03-29T13:32:50.109Z,65.07
2019-03-29T13:35:22.232Z,64.73
2019-03-29T13:37:54.323Z,64.07
2019-03-29T13:40:26.516Z,63.92
2019-03-29T13:42:58.676Z,63.81
2019-03-29T13:45:30.747Z,64.21
2019-03-29T13:48:02.867Z,63.81
2019-03-29T13:50:35.102Z,63.40
2019-03-29T13:53:08.266Z,63.80
2019-03-29T13:55:40.344Z,63.20
2019-03-29T13:58:12.561Z,63.61
2019-03-29T14:00:44.636Z,63.73
2019-03-29T14:03:16.974Z,63.76
2019-03-29T14:05:49.125Z,63.67
2019-03-29T14:08:21.155Z,63.96
2019-03-29T14:10:53.391Z,63.82
2019-03-29T14:13:25.513Z,62.92
2019-03-29T14:15:57.534Z,62.97
2019-03-29T14:18:29.488Z,62.55
2019-03-29T14:21:01.722Z,62.62
2019-03-29T14:23:33.820Z,62.97
2019-03-29T14:26:05.904Z,63.26
2019-03-29T14:28:38.039Z,63.35
2019-03-29T14:31:10.379Z,63.95
2019-03-29T14:33:42.769Z,63.88
2019-03-29T14:36:14.856Z,63.68
2019-03-29T14:38:47.063Z,63.46
2019-03-29T14:41:19.208Z,62.88
2019-03-29T14:43:51.183Z,63.35
2019-03-29T14:46:23.344Z,63.30
2019-03-29T14:48:55.602Z,63.68
2019-03-29T14:51:27.433Z,63.42
2019-03-29T14:53:59.414Z,62.74
2019-03-29T14:56:31.329Z,63.26
2019-03-29T14:59:03.752Z,63.42
2019-03-29T15:01:35.928Z,62.96
2019-03-29T15:04:08.069Z,63.69
2019-03-29T15:06:39.926Z,63.63
2019-03-29T15:09:11.975Z,63.77
2019-03-29T15:11:43.916Z,63.29
2019-03-29T15:14:15.993Z,63.25
2019-03-29T15:16:48.091Z,63.66
2019-03-29T15:19:20.008Z,63.23
2019-03-29T15:21:52.073Z,63.01
2019-03-29T15:24:24.550Z,63.43
2019-03-29T15:26:56.891Z,63.86
2019-03-29T15:29:28.921Z,63.83
2019-03-29T15:32:01.132Z,63.27
2019-03-29T15:34:33.171Z,62.86
2019-03-29T15:37:05.146Z,62.88
2019-03-29T15:39:37.305Z,62.81
2019-03-29T15:42:09.238Z,62.90
2019-03-29T15:44:41.745Z,63.04
2019-03-29T15:47:14.136Z,63.43
2019-03-29T15:49:55.930Z,63.17
2019-03-29T15:52:20.195Z,62.81
2019-03-29T15:54:52.123Z,63.68
2019-03-29T15:57:24.164Z,63.76
2019-03-29T15:59:56.297Z,63.49
2019-03-29T16:02:29.638Z,63.83
2019-03-29T16:05:01.596Z,63.75
2019-03-29T16:07:35.080Z,63.67
2019-03-29T16:10:08.596Z,63.87
2019-03-29T16:12:40.702Z,64.04
2019-03-29T16:15:12.883Z,64.27
2019-03-29T16:17:45.051Z,64.02
2019-03-29T16:20:17.197Z,63.84
2019-03-29T16:22:49.688Z,64.04
2019-03-29T16:25:21.897Z,63.31
2019-03-29T16:27:53.876Z,64.10
2019-03-29T16:30:26.390Z,64.38
2019-03-29T16:32:58.557Z,64.24
2019-03-29T16:35:30.634Z,64.27
2019-03-29T16:38:02.716Z,64.24
2019-03-29T16:40:34.896Z,64.06
2019-03-29T16:43:06.997Z,64.35
2019-03-29T16:45:47.940Z,64.04
2019-03-29T16:48:12.960Z,64.25
2019-03-29T16:50:43.557Z,64.00
2019-03-29T16:53:15.787Z,64.45
2019-03-29T16:55:48.176Z,63.49
2019-03-29T16:58:20.610Z,63.54
2019-03-29T17:00:52.871Z,63.72
2019-03-29T17:03:25.117Z,63.87
2019-03-29T17:05:57.342Z,64.44
2019-03-29T17:08:29.568Z,64.17
2019-03-29T17:11:01.587Z,64.01
2019-03-29T17:13:33.762Z,63.42
2019-03-29T17:16:06.226Z,63.83
2019-03-29T17:18:40.322Z,63.77
2019-03-29T17:21:12.889Z,63.07
2019-03-29T17:23:45.563Z,62.47
2019-03-29T17:26:18.723Z,62.33
2019-03-29T17:28:51.152Z,62.37
2019-03-29T17:31:23.673Z,62.55
2019-03-29T17:33:57.234Z,62.59
2019-03-29T17:36:29.339Z,62.28
2019-03-29T17:39:01.829Z,62.11
2019-03-29T17:41:36.326Z,62.01
2019-03-29T17:44:08.562Z,62.34
2019-03-29T17:46:40.758Z,61.97
2019-03-29T17:49:12.806Z,62.44
2019-03-29T17:51:47.302Z,62.31
2019-03-29T17:54:19.206Z,62.23
2019-03-29T17:56:51.231Z,62.54
2019-03-29T17:59:23.477Z,62.67
2019-03-29T18:02:08.834Z,62.56
2019-03-29T18:04:29.904Z,62.94
2019-03-29T18:07:02.213Z,63.12
2019-03-29T18:09:34.591Z,63.29
2019-03-29T18:12:07.089Z,63.54
2019-03-29T18:14:39.449Z,63.58
2019-03-29T18:17:11.542Z,63.67
2019-03-29T18:19:43.859Z,63.88
2019-03-29T18:22:16.077Z,64.13
2019-03-29T18:24:48.430Z,64.33
2019-03-29T18:27:20.700Z,64.62
2019-03-29T18:29:53.738Z,64.62
2019-03-29T18:32:26.039Z,65.05
2019-03-29T18:34:58.566Z,64.98
2019-03-29T18:37:30.828Z,64.98
2019-03-29T18:40:05.486Z,65.34
2019-03-29T18:42:37.544Z,65.21
2019-03-29T18:45:10.032Z,65.50
2019-03-29T18:47:42.006Z,65.16
2019-03-29T18:50:14.244Z,65.27
2019-03-29T18:52:47.411Z,65.10
2019-03-29T18:55:19.668Z,65.37
2019-03-29T18:57:51.913Z,65.19
2019-03-29T19:00:32.207Z,65.24
2019-03-29T19:03:04.580Z,64.84
2019-03-29T19:05:36.633Z,65.20
2019-03-29T19:08:08.904Z,65.17
2019-03-29T19:10:40.906Z,65.36
2019-03-29T19:13:13.185Z,65.76
2019-03-29T19:15:45.432Z,66.04
2019-03-29T19:18:17.424Z,66.49
2019-03-29T19:20:49.514Z,66.68
2019-03-29T19:23:21.703Z,66.58
2019-03-29T19:25:54.089Z,66.88
2019-03-29T19:28:26.046Z,66.37
2019-03-29T19:30:58.129Z,66.91
2019-03-29T19:33:30.563Z,66.83
2019-03-29T19:36:02.773Z,66.78
2019-03-29T19:38:35.035Z,66.97
2019-03-29T19:41:06.998Z,67.22
2019-03-29T19:43:39.523Z,67.18
2019-03-29T19:46:11.373Z,67.10
2019-03-29T19:48:43.482Z,67.04
2019-03-29T19:51:15.461Z,67.18
2019-03-29T19:53:47.600Z,67.33
2019-03-29T19:56:20.376Z,67.69
2019-03-29T19:58:52.654Z,67.66
2019-03-29T20:01:24.949Z,67.28
2019-03-29T20:03:57.134Z,67.49
2019-03-29T20:06:29.704Z,67.54
2019-03-29T20:09:01.782Z,67.30
2019-03-29T20:11:34.387Z,67.33
2019-03-29T20:14:06.536Z,67.48
2019-03-29T20:16:39.620Z,67.43
2019-03-29T20:19:11.744Z,67.71
2019-03-29T20:21:44.035Z,67.70
2019-03-29T20:24:16.229Z,67.50
2019-03-29T20:26:48.733Z,67.70
2019-03-29T20:29:20.788Z,67.70
2019-03-29T20:31:52.922Z,67.63
2019-03-29T20:34:24.967Z,67.61
2019-03-29T20:36:56.883Z,67.67
2019-03-29T20:39:28.926Z,67.44
2019-03-29T20:42:01.471Z,66.96
2019-03-29T20:44:33.672Z,66.96
2019-03-29T20:47:06.068Z,66.68
2019-03-29T20:49:38.158Z,66.43
2019-03-29T20:52:10.490Z,66.71
2019-03-29T20:54:43.220Z,66.88
2019-03-29T20:57:15.871Z,67.10
2019-03-29T20:59:49.610Z,67.30
2019-03-29T21:02:24.148Z,67.64
2019-03-29T21:04:56.324Z,67.78
2019-03-29T21:07:28.387Z,68.21
2019-03-29T21:10:00.772Z,68.25
2019-03-29T21:12:33.133Z,68.64
2019-03-29T21:15:05.812Z,68.89
2019-03-29T21:17:38.234Z,68.36
2019-03-29T21:20:11.110Z,68.44
2019-03-29T21:22:43.277Z,68.69
2019-03-29T21:25:15.352Z,68.67
2019-03-29T21:27:47.512Z,68.54
2019-03-29T21:30:20.025Z,68.26
2019-03-29T21:32:52.528Z,67.93
2019-03-29T21:35:24.459Z,67.44
2019-03-29T21:37:56.330Z,68.00
2019-03-29T21:40:28.424Z,67.68
2019-03-29T21:43:02.009Z,67.84
2019-03-29T21:45:34.454Z,68.14
2019-03-29T21:48:27.253Z,68.45
2019-03-29T21:50:40.788Z,68.52
2019-03-29T21:53:13.535Z,68.71
2019-03-29T21:55:46.566Z,68.99
2019-03-29T21:58:18.732Z,69.00
2019-03-29T22:00:50.600Z,68.64
2019-03-29T22:03:22.839Z,68.22
2019-03-29T22:05:54.821Z,68.19
2019-03-29T22:08:26.838Z,68.23
2019-03-29T22:10:59.428Z,68.16
2019-03-29T22:13:31.567Z,68.13
2019-03-29T22:16:03.807Z,67.99
2019-03-29T22:18:38.153Z,68.06
2019-03-29T22:21:10.066Z,67.67
2019-03-29T22:23:42.381Z,67.70
2019-03-29T22:26:14.599Z,67.60
2019-03-29T22:28:47.170Z,67.50
2019-03-29T22:31:19.331Z,67.25
2019-03-29T22:33:51.291Z,67.15
2019-03-29T22:36:23.619Z,67.13
2019-03-29T22:38:55.876Z,67.09
2019-03-29T22:41:27.834Z,67.00
2019-03-29T22:43:59.994Z,66.96
2019-03-29T22:46:32.131Z,67.03
2019-03-29T22:49:04.426Z,66.95
2019-03-29T22:51:36.493Z,66.95
2019-03-29T22:54:08.895Z,66.69
2019-03-29T22:56:41.603Z,66.39
2019-03-29T22:59:13.683Z,66.67
2019-03-29T23:01:47.666Z,66.67
2019-03-29T23:04:19.725Z,66.63
2019-03-29T23:06:51.829Z,66.88
2019-03-29T23:09:23.783Z,67.15
2019-03-29T23:11:57.418Z,67.27
2019-03-29T23:14:29.356Z,67.20
2019-03-29T23:17:01.481Z,67.04
2019-03-29T23:19:33.618Z,67.13
2019-03-29T23:22:05.757Z,67.19
2019-03-29T23:24:37.683Z,67.06
2019-03-29T23:27:10.962Z,66.95
2019-03-29T23:29:43.771Z,67.22
2019-03-29T23:32:15.984Z,67.49
2019-03-29T23:34:48.240Z,67.31
2019-03-29T23:37:21.118Z,67.76
2019-03-29T23:39:53.339Z,67.87
2019-03-29T23:42:28.589Z,67.43
2019-03-29T23:45:00.856Z,67.93
2019-03-29T23:47:32.886Z,67.92
2019-03-29T23:50:05.496Z,68.12
2019-03-29T23:52:37.765Z,68.46
2019-03-29T23:55:10.279Z,68.53
2019-03-29T23:57:42.964Z,68.87
